sensor_id;sensor_type;location;lat;lon;timestamp;P1;durP1;ratioP1;P2;durP2;ratioP2
75718;SDS011;64340;48.534;-3.036;2023-11-21T00:01:18;11.15;;;4.65;;
75718;SDS011;64340;48.534;-3.036;2023-11-21T00:03:44;9.73;;;3.92;;
75718;SDS011;64340;48.534;-3.036;2023-11-21T00:06:10;9.00;;;3.85;;
75718;SDS011;64340;48.534;-3.036;2023-11-21T00:08:36;8.48;;;4.07;;
75718;SDS011;64340;48.534;-3.036;2023-11-21T00:11:02;8.13;;;3.33;;
75718;SDS011;64340;48.534;-3.036;2023-11-21T00:13:30;8.27;;;3.45;;
75718;SDS011;64340;48.534;-3.036;2023-11-21T00:15:56;9.70;;;4.13;;
75718;SDS011;64340;48.534;-3.036;2023-11-21T00:18:22;6.38;;;3.20;;
75718;SDS011;64340;48.534;-3.036;2023-11-21T00:20:48;7.35;;;3.30;;
75718;SDS011;64340;48.534;-3.036;2023-11-21T00:23:14;7.13;;;3.08;;
75718;SDS011;64340;48.534;-3.036;2023-11-21T00:25:39;8.23;;;3.42;;
75718;SDS011;64340;48.534;-3.036;2023-11-21T00:28:05;9.32;;;3.63;;
75718;SDS011;64340;48.534;-3.036;2023-11-21T00:30:32;8.63;;;3.33;;
75718;SDS011;64340;48.534;-3.036;2023-11-21T00:32:58;7.00;;;3.17;;
75718;SDS011;64340;48.534;-3.036;2023-11-21T00:35:24;7.07;;;2.88;;
75718;SDS011;64340;48.534;-3.036;2023-11-21T00:37:49;6.15;;;3.03;;
75718;SDS011;64340;48.534;-3.036;2023-11-21T00:40:15;6.72;;;3.20;;
75718;SDS011;64340;48.534;-3.036;2023-11-21T00:42:44;6.47;;;2.97;;
75718;SDS011;64340;48.534;-3.036;2023-11-21T00:45:10;7.32;;;3.08;;
75718;SDS011;64340;48.534;-3.036;2023-11-21T00:47:36;6.20;;;2.83;;
75718;SDS011;64340;48.534;-3.036;2023-11-21T00:50:03;5.93;;;2.55;;
75718;SDS011;64340;48.534;-3.036;2023-11-21T00:52:31;6.38;;;2.85;;
75718;SDS011;64340;48.534;-3.036;2023-11-21T00:54:57;9.25;;;2.85;;
75718;SDS011;64340;48.534;-3.036;2023-11-21T00:57:25;6.25;;;3.05;;
75718;SDS011;64340;48.534;-3.036;2023-11-21T00:59:51;5.90;;;2.42;;
75718;SDS011;64340;48.534;-3.036;2023-11-21T01:02:17;6.30;;;2.83;;
75718;SDS011;64340;48.534;-3.036;2023-11-21T01:04:43;5.82;;;2.58;;
75718;SDS011;64340;48.534;-3.036;2023-11-21T01:07:09;6.32;;;2.80;;
75718;SDS011;64340;48.534;-3.036;2023-11-21T01:09:34;5.97;;;2.50;;
75718;SDS011;64340;48.534;-3.036;2023-11-21T01:12:00;6.03;;;2.38;;
75718;SDS011;64340;48.534;-3.036;2023-11-21T01:14:26;6.20;;;2.60;;
75718;SDS011;64340;48.534;-3.036;2023-11-21T01:16:52;5.65;;;2.72;;
75718;SDS011;64340;48.534;-3.036;2023-11-21T01:19:18;5.32;;;2.38;;
75718;SDS011;64340;48.534;-3.036;2023-11-21T01:21:44;4.95;;;2.45;;
75718;SDS011;64340;48.534;-3.036;2023-11-21T01:24:10;5.82;;;2.20;;
75718;SDS011;64340;48.534;-3.036;2023-11-21T01:26:35;4.78;;;2.08;;
75718;SDS011;64340;48.534;-3.036;2023-11-21T01:29:01;4.97;;;2.00;;
75718;SDS011;64340;48.534;-3.036;2023-11-21T01:31:27;6.45;;;2.30;;
75718;SDS011;64340;48.534;-3.036;2023-11-21T01:33:54;6.05;;;2.38;;
75718;SDS011;64340;48.534;-3.036;2023-11-21T01:36:21;5.13;;;2.00;;
75718;SDS011;64340;48.534;-3.036;2023-11-21T01:38:46;4.72;;;1.80;;
75718;SDS011;64340;48.534;-3.036;2023-11-21T01:41:15;5.82;;;2.53;;
75718;SDS011;64340;48.534;-3.036;2023-11-21T01:43:41;5.30;;;2.47;;
75718;SDS011;64340;48.534;-3.036;2023-11-21T01:46:07;5.13;;;2.38;;
75718;SDS011;64340;48.534;-3.036;2023-11-21T01:48:34;6.53;;;2.30;;
75718;SDS011;64340;48.534;-3.036;2023-11-21T01:51:00;4.72;;;2.05;;
75718;SDS011;64340;48.534;-3.036;2023-11-21T01:53:27;4.78;;;1.90;;
75718;SDS011;64340;48.534;-3.036;2023-11-21T01:55:53;5.50;;;1.92;;
75718;SDS011;64340;48.534;-3.036;2023-11-21T01:58:20;5.63;;;1.77;;
75718;SDS011;64340;48.534;-3.036;2023-11-21T02:00:46;4.63;;;1.63;;
75718;SDS011;64340;48.534;-3.036;2023-11-21T02:05:41;3.95;;;1.67;;
75718;SDS011;64340;48.534;-3.036;2023-11-21T02:08:07;5.55;;;2.03;;
75718;SDS011;64340;48.534;-3.036;2023-11-21T02:10:34;4.15;;;1.90;;
75718;SDS011;64340;48.534;-3.036;2023-11-21T02:13:02;5.72;;;2.13;;
75718;SDS011;64340;48.534;-3.036;2023-11-21T02:15:28;5.07;;;1.65;;
75718;SDS011;64340;48.534;-3.036;2023-11-21T02:17:54;5.03;;;1.80;;
75718;SDS011;64340;48.534;-3.036;2023-11-21T02:20:21;3.78;;;1.55;;
75718;SDS011;64340;48.534;-3.036;2023-11-21T02:22:50;5.20;;;1.90;;
75718;SDS011;64340;48.534;-3.036;2023-11-21T02:25:23;5.38;;;1.52;;
75718;SDS011;64340;48.534;-3.036;2023-11-21T02:27:55;3.85;;;1.50;;
75718;SDS011;64340;48.534;-3.036;2023-11-21T02:30:22;7.90;;;2.10;;
75718;SDS011;64340;48.534;-3.036;2023-11-21T02:32:50;4.22;;;1.40;;
75718;SDS011;64340;48.534;-3.036;2023-11-21T02:35:19;3.38;;;1.40;;
75718;SDS011;64340;48.534;-3.036;2023-11-21T02:37:51;5.25;;;1.50;;
75718;SDS011;64340;48.534;-3.036;2023-11-21T02:40:17;4.35;;;1.70;;
75718;SDS011;64340;48.534;-3.036;2023-11-21T02:42:43;4.97;;;1.80;;
75718;SDS011;64340;48.534;-3.036;2023-11-21T02:45:09;6.53;;;1.52;;
75718;SDS011;64340;48.534;-3.036;2023-11-21T02:47:38;3.35;;;1.30;;
75718;SDS011;64340;48.534;-3.036;2023-11-21T02:50:04;5.15;;;1.55;;
75718;SDS011;64340;48.534;-3.036;2023-11-21T02:52:32;5.53;;;1.75;;
75718;SDS011;64340;48.534;-3.036;2023-11-21T02:54:58;4.28;;;1.52;;
75718;SDS011;64340;48.534;-3.036;2023-11-21T02:57:24;4.15;;;1.20;;
75718;SDS011;64340;48.534;-3.036;2023-11-21T02:59:50;4.38;;;1.40;;
75718;SDS011;64340;48.534;-3.036;2023-11-21T03:02:16;2.65;;;0.98;;
75718;SDS011;64340;48.534;-3.036;2023-11-21T03:04:42;3.65;;;1.20;;
75718;SDS011;64340;48.534;-3.036;2023-11-21T03:07:08;5.15;;;1.50;;
75718;SDS011;64340;48.534;-3.036;2023-11-21T03:09:34;7.15;;;1.67;;
75718;SDS011;64340;48.534;-3.036;2023-11-21T03:12:00;4.47;;;1.40;;
75718;SDS011;64340;48.534;-3.036;2023-11-21T03:14:26;2.92;;;1.08;;
75718;SDS011;64340;48.534;-3.036;2023-11-21T03:16:52;2.92;;;1.10;;
75718;SDS011;64340;48.534;-3.036;2023-11-21T03:19:17;6.65;;;1.60;;
75718;SDS011;64340;48.534;-3.036;2023-11-21T03:21:43;4.05;;;1.20;;
75718;SDS011;64340;48.534;-3.036;2023-11-21T03:24:09;3.45;;;1.20;;
75718;SDS011;64340;48.534;-3.036;2023-11-21T03:26:34;3.30;;;0.90;;
75718;SDS011;64340;48.534;-3.036;2023-11-21T03:29:02;5.97;;;2.00;;
75718;SDS011;64340;48.534;-3.036;2023-11-21T03:31:28;4.22;;;1.02;;
75718;SDS011;64340;48.534;-3.036;2023-11-21T03:33:53;4.13;;;1.30;;
75718;SDS011;64340;48.534;-3.036;2023-11-21T03:36:19;2.67;;;0.88;;
75718;SDS011;64340;48.534;-3.036;2023-11-21T03:38:45;3.60;;;1.50;;
75718;SDS011;64340;48.534;-3.036;2023-11-21T03:41:13;3.80;;;1.02;;
75718;SDS011;64340;48.534;-3.036;2023-11-21T03:43:39;5.13;;;1.17;;
75718;SDS011;64340;48.534;-3.036;2023-11-21T03:46:05;5.75;;;1.20;;
75718;SDS011;64340;48.534;-3.036;2023-11-21T03:48:32;3.13;;;1.00;;
75718;SDS011;64340;48.534;-3.036;2023-11-21T03:50:58;4.85;;;1.40;;
75718;SDS011;64340;48.534;-3.036;2023-11-21T03:53:23;4.70;;;0.90;;
75718;SDS011;64340;48.534;-3.036;2023-11-21T03:55:49;4.13;;;1.02;;
75718;SDS011;64340;48.534;-3.036;2023-11-21T03:58:16;4.22;;;0.90;;
75718;SDS011;64340;48.534;-3.036;2023-11-21T04:00:42;5.15;;;0.80;;
75718;SDS011;64340;48.534;-3.036;2023-11-21T04:03:07;3.17;;;1.25;;
75718;SDS011;64340;48.534;-3.036;2023-11-21T04:05:33;4.80;;;1.15;;
75718;SDS011;64340;48.534;-3.036;2023-11-21T04:07:59;3.70;;;0.85;;
75718;SDS011;64340;48.534;-3.036;2023-11-21T04:10:24;3.72;;;0.90;;
75718;SDS011;64340;48.534;-3.036;2023-11-21T04:12:50;5.75;;;1.45;;
75718;SDS011;64340;48.534;-3.036;2023-11-21T04:15:16;4.15;;;1.02;;
75718;SDS011;64340;48.534;-3.036;2023-11-21T04:17:42;4.25;;;1.08;;
75718;SDS011;64340;48.534;-3.036;2023-11-21T04:20:08;5.80;;;1.05;;
75718;SDS011;64340;48.534;-3.036;2023-11-21T04:22:40;4.50;;;1.02;;
75718;SDS011;64340;48.534;-3.036;2023-11-21T04:25:12;4.25;;;0.88;;
75718;SDS011;64340;48.534;-3.036;2023-11-21T04:27:39;2.65;;;0.70;;
75718;SDS011;64340;48.534;-3.036;2023-11-21T04:30:08;4.25;;;1.10;;
75718;SDS011;64340;48.534;-3.036;2023-11-21T04:32:35;5.43;;;1.23;;
75718;SDS011;64340;48.534;-3.036;2023-11-21T04:35:01;4.53;;;1.08;;
75718;SDS011;64340;48.534;-3.036;2023-11-21T04:37:27;3.17;;;0.73;;
75718;SDS011;64340;48.534;-3.036;2023-11-21T04:39:52;3.15;;;0.70;;
75718;SDS011;64340;48.534;-3.036;2023-11-21T04:42:18;4.20;;;1.10;;
75718;SDS011;64340;48.534;-3.036;2023-11-21T04:44:44;3.95;;;1.00;;
75718;SDS011;64340;48.534;-3.036;2023-11-21T04:47:09;3.67;;;0.80;;
75718;SDS011;64340;48.534;-3.036;2023-11-21T04:49:35;3.80;;;0.90;;
75718;SDS011;64340;48.534;-3.036;2023-11-21T04:52:01;5.70;;;1.10;;
75718;SDS011;64340;48.534;-3.036;2023-11-21T04:54:28;5.07;;;0.88;;
75718;SDS011;64340;48.534;-3.036;2023-11-21T04:56:55;5.65;;;0.80;;
75718;SDS011;64340;48.534;-3.036;2023-11-21T04:59:21;2.47;;;0.77;;
75718;SDS011;64340;48.534;-3.036;2023-11-21T05:01:50;3.03;;;0.73;;
75718;SDS011;64340;48.534;-3.036;2023-11-21T05:04:15;4.20;;;0.98;;
75718;SDS011;64340;48.534;-3.036;2023-11-21T05:06:41;3.63;;;0.70;;
75718;SDS011;64340;48.534;-3.036;2023-11-21T05:09:07;2.65;;;0.70;;
75718;SDS011;64340;48.534;-3.036;2023-11-21T05:11:37;1.75;;;0.73;;
75718;SDS011;64340;48.534;-3.036;2023-11-21T05:14:03;3.83;;;1.02;;
75718;SDS011;64340;48.534;-3.036;2023-11-21T05:16:30;3.80;;;0.95;;
75718;SDS011;64340;48.534;-3.036;2023-11-21T05:18:56;4.57;;;0.90;;
75718;SDS011;64340;48.534;-3.036;2023-11-21T05:21:25;3.10;;;0.75;;
75718;SDS011;64340;48.534;-3.036;2023-11-21T05:23:57;3.47;;;0.93;;
75718;SDS011;64340;48.534;-3.036;2023-11-21T05:26:24;2.90;;;0.85;;
75718;SDS011;64340;48.534;-3.036;2023-11-21T05:28:49;3.42;;;0.90;;
75718;SDS011;64340;48.534;-3.036;2023-11-21T05:31:15;4.85;;;0.85;;
75718;SDS011;64340;48.534;-3.036;2023-11-21T05:33:41;2.90;;;0.80;;
75718;SDS011;64340;48.534;-3.036;2023-11-21T05:36:07;4.18;;;1.52;;
75718;SDS011;64340;48.534;-3.036;2023-11-21T05:38:35;3.92;;;0.82;;
75718;SDS011;64340;48.534;-3.036;2023-11-21T05:41:01;6.80;;;0.75;;
75718;SDS011;64340;48.534;-3.036;2023-11-21T05:43:28;4.68;;;0.90;;
75718;SDS011;64340;48.534;-3.036;2023-11-21T05:45:55;3.50;;;0.80;;
75718;SDS011;64340;48.534;-3.036;2023-11-21T05:48:21;6.72;;;0.88;;
75718;SDS011;64340;48.534;-3.036;2023-11-21T05:50:48;3.60;;;0.90;;
75718;SDS011;64340;48.534;-3.036;2023-11-21T05:53:15;4.72;;;1.25;;
75718;SDS011;64340;48.534;-3.036;2023-11-21T05:55:42;4.60;;;0.90;;
75718;SDS011;64340;48.534;-3.036;2023-11-21T05:58:07;4.05;;;0.75;;
75718;SDS011;64340;48.534;-3.036;2023-11-21T06:00:34;3.45;;;0.90;;
75718;SDS011;64340;48.534;-3.036;2023-11-21T06:03:01;7.03;;;1.20;;
75718;SDS011;64340;48.534;-3.036;2023-11-21T06:05:26;4.32;;;1.10;;
75718;SDS011;64340;48.534;-3.036;2023-11-21T06:07:52;4.47;;;1.05;;
75718;SDS011;64340;48.534;-3.036;2023-11-21T06:10:29;6.07;;;1.40;;
75718;SDS011;64340;48.534;-3.036;2023-11-21T06:12:54;6.95;;;1.15;;
75718;SDS011;64340;48.534;-3.036;2023-11-21T06:15:20;7.03;;;1.25;;
75718;SDS011;64340;48.534;-3.036;2023-11-21T06:17:48;6.97;;;1.17;;
75718;SDS011;64340;48.534;-3.036;2023-11-21T06:20:14;8.82;;;1.33;;
75718;SDS011;64340;48.534;-3.036;2023-11-21T06:22:43;7.22;;;1.80;;
75718;SDS011;64340;48.534;-3.036;2023-11-21T06:25:15;4.78;;;1.38;;
75718;SDS011;64340;48.534;-3.036;2023-11-21T06:27:43;6.57;;;1.25;;
75718;SDS011;64340;48.534;-3.036;2023-11-21T06:30:11;7.00;;;2.08;;
75718;SDS011;64340;48.534;-3.036;2023-11-21T06:32:38;6.80;;;1.50;;
75718;SDS011;64340;48.534;-3.036;2023-11-21T06:35:05;10.32;;;1.27;;
75718;SDS011;64340;48.534;-3.036;2023-11-21T06:37:31;30.63;;;5.85;;
75718;SDS011;64340;48.534;-3.036;2023-11-21T06:39:58;17.52;;;3.65;;
75718;SDS011;64340;48.534;-3.036;2023-11-21T06:42:24;20.90;;;4.53;;
75718;SDS011;64340;48.534;-3.036;2023-11-21T06:44:51;20.90;;;4.75;;
75718;SDS011;64340;48.534;-3.036;2023-11-21T06:47:20;26.10;;;4.88;;
75718;SDS011;64340;48.534;-3.036;2023-11-21T06:49:45;17.38;;;4.05;;
75718;SDS011;64340;48.534;-3.036;2023-11-21T06:52:14;15.80;;;3.97;;
75718;SDS011;64340;48.534;-3.036;2023-11-21T06:54:40;20.50;;;4.32;;
75718;SDS011;64340;48.534;-3.036;2023-11-21T06:57:06;18.83;;;4.15;;
75718;SDS011;64340;48.534;-3.036;2023-11-21T06:59:32;16.27;;;3.65;;
75718;SDS011;64340;48.534;-3.036;2023-11-21T07:01:58;14.52;;;3.10;;
75718;SDS011;64340;48.534;-3.036;2023-11-21T07:04:24;15.65;;;3.15;;
75718;SDS011;64340;48.534;-3.036;2023-11-21T07:06:53;14.38;;;3.75;;
75718;SDS011;64340;48.534;-3.036;2023-11-21T07:09:19;16.15;;;3.08;;
75718;SDS011;64340;48.534;-3.036;2023-11-21T07:11:47;16.80;;;3.10;;
75718;SDS011;64340;48.534;-3.036;2023-11-21T07:14:13;14.43;;;3.63;;
75718;SDS011;64340;48.534;-3.036;2023-11-21T07:16:39;10.50;;;2.70;;
75718;SDS011;64340;48.534;-3.036;2023-11-21T07:19:06;12.52;;;3.05;;
75718;SDS011;64340;48.534;-3.036;2023-11-21T07:21:35;13.00;;;2.78;;
75718;SDS011;64340;48.534;-3.036;2023-11-21T07:24:04;10.07;;;2.50;;
75718;SDS011;64340;48.534;-3.036;2023-11-21T07:26:31;10.70;;;2.70;;
75718;SDS011;64340;48.534;-3.036;2023-11-21T07:28:58;9.25;;;2.25;;
75718;SDS011;64340;48.534;-3.036;2023-11-21T07:31:25;9.73;;;2.22;;
75718;SDS011;64340;48.534;-3.036;2023-11-21T07:33:51;9.65;;;2.28;;
75718;SDS011;64340;48.534;-3.036;2023-11-21T07:36:17;10.60;;;2.55;;
75718;SDS011;64340;48.534;-3.036;2023-11-21T07:38:44;11.27;;;2.38;;
75718;SDS011;64340;48.534;-3.036;2023-11-21T07:41:10;9.18;;;2.70;;
75718;SDS011;64340;48.534;-3.036;2023-11-21T07:43:36;9.63;;;2.20;;
75718;SDS011;64340;48.534;-3.036;2023-11-21T07:46:02;8.52;;;1.58;;
75718;SDS011;64340;48.534;-3.036;2023-11-21T07:48:31;7.57;;;1.92;;
75718;SDS011;64340;48.534;-3.036;2023-11-21T07:50:57;10.23;;;1.98;;
75718;SDS011;64340;48.534;-3.036;2023-11-21T07:53:24;7.82;;;1.73;;
75718;SDS011;64340;48.534;-3.036;2023-11-21T07:55:55;7.15;;;1.73;;
75718;SDS011;64340;48.534;-3.036;2023-11-21T07:58:21;7.22;;;1.60;;
75718;SDS011;64340;48.534;-3.036;2023-11-21T08:00:47;9.02;;;2.08;;
75718;SDS011;64340;48.534;-3.036;2023-11-21T08:03:14;7.45;;;2.17;;
75718;SDS011;64340;48.534;-3.036;2023-11-21T08:05:40;6.88;;;2.08;;
75718;SDS011;64340;48.534;-3.036;2023-11-21T08:08:05;7.70;;;2.25;;
75718;SDS011;64340;48.534;-3.036;2023-11-21T08:10:31;9.00;;;1.73;;
75718;SDS011;64340;48.534;-3.036;2023-11-21T08:12:57;6.18;;;1.45;;
75718;SDS011;64340;48.534;-3.036;2023-11-21T08:15:23;8.07;;;1.95;;
75718;SDS011;64340;48.534;-3.036;2023-11-21T08:17:49;7.00;;;1.40;;
75718;SDS011;64340;48.534;-3.036;2023-11-21T08:20:15;5.20;;;1.25;;
75718;SDS011;64340;48.534;-3.036;2023-11-21T08:22:43;3.63;;;1.25;;
75718;SDS011;64340;48.534;-3.036;2023-11-21T08:25:09;6.35;;;1.58;;
75718;SDS011;64340;48.534;-3.036;2023-11-21T08:27:35;7.75;;;1.70;;
75718;SDS011;64340;48.534;-3.036;2023-11-21T08:30:02;6.55;;;1.60;;
75718;SDS011;64340;48.534;-3.036;2023-11-21T08:32:28;6.60;;;1.40;;
75718;SDS011;64340;48.534;-3.036;2023-11-21T08:35:00;7.28;;;1.25;;
75718;SDS011;64340;48.534;-3.036;2023-11-21T08:37:26;6.63;;;1.30;;
75718;SDS011;64340;48.534;-3.036;2023-11-21T08:39:52;9.13;;;2.13;;
75718;SDS011;64340;48.534;-3.036;2023-11-21T08:42:21;3.80;;;1.15;;
75718;SDS011;64340;48.534;-3.036;2023-11-21T08:44:48;5.63;;;1.30;;
75718;SDS011;64340;48.534;-3.036;2023-11-21T08:47:13;7.63;;;1.40;;
75718;SDS011;64340;48.534;-3.036;2023-11-21T08:49:39;5.78;;;1.13;;
75718;SDS011;64340;48.534;-3.036;2023-11-21T08:52:05;5.13;;;1.05;;
75718;SDS011;64340;48.534;-3.036;2023-11-21T08:54:31;5.65;;;1.10;;
75718;SDS011;64340;48.534;-3.036;2023-11-21T08:56:59;5.10;;;1.25;;
75718;SDS011;64340;48.534;-3.036;2023-11-21T08:59:25;4.68;;;0.90;;
75718;SDS011;64340;48.534;-3.036;2023-11-21T09:01:51;4.18;;;1.13;;
75718;SDS011;64340;48.534;-3.036;2023-11-21T09:04:17;3.25;;;0.80;;
75718;SDS011;64340;48.534;-3.036;2023-11-21T09:06:43;3.25;;;0.82;;
75718;SDS011;64340;48.534;-3.036;2023-11-21T09:09:09;4.75;;;0.73;;
75718;SDS011;64340;48.534;-3.036;2023-11-21T09:11:35;3.30;;;0.93;;
75718;SDS011;64340;48.534;-3.036;2023-11-21T09:14:02;5.72;;;1.10;;
75718;SDS011;64340;48.534;-3.036;2023-11-21T09:16:28;2.45;;;0.63;;
75718;SDS011;64340;48.534;-3.036;2023-11-21T09:18:54;5.75;;;1.38;;
75718;SDS011;64340;48.534;-3.036;2023-11-21T09:21:20;6.07;;;1.13;;
75718;SDS011;64340;48.534;-3.036;2023-11-21T09:23:46;2.70;;;0.85;;
75718;SDS011;64340;48.534;-3.036;2023-11-21T09:26:13;2.97;;;0.80;;
75718;SDS011;64340;48.534;-3.036;2023-11-21T09:28:41;2.88;;;0.70;;
75718;SDS011;64340;48.534;-3.036;2023-11-21T09:31:12;3.00;;;0.88;;
75718;SDS011;64340;48.534;-3.036;2023-11-21T09:33:41;3.40;;;0.80;;
75718;SDS011;64340;48.534;-3.036;2023-11-21T09:36:12;5.32;;;1.05;;
75718;SDS011;64340;48.534;-3.036;2023-11-21T09:38:41;3.75;;;1.02;;
75718;SDS011;64340;48.534;-3.036;2023-11-21T09:41:11;3.80;;;0.88;;
75718;SDS011;64340;48.534;-3.036;2023-11-21T09:43:46;4.35;;;1.15;;
75718;SDS011;64340;48.534;-3.036;2023-11-21T09:46:17;2.30;;;0.60;;
75718;SDS011;64340;48.534;-3.036;2023-11-21T09:48:50;2.65;;;0.77;;
75718;SDS011;64340;48.534;-3.036;2023-11-21T09:51:19;2.50;;;0.68;;
75718;SDS011;64340;48.534;-3.036;2023-11-21T09:53:48;3.38;;;0.73;;
75718;SDS011;64340;48.534;-3.036;2023-11-21T09:56:17;3.85;;;0.95;;
75718;SDS011;64340;48.534;-3.036;2023-11-21T09:58:50;1.67;;;0.80;;
75718;SDS011;64340;48.534;-3.036;2023-11-21T10:01:17;3.85;;;1.02;;
75718;SDS011;64340;48.534;-3.036;2023-11-21T10:03:44;3.67;;;0.65;;
75718;SDS011;64340;48.534;-3.036;2023-11-21T10:06:12;5.82;;;1.27;;
75718;SDS011;64340;48.534;-3.036;2023-11-21T10:08:39;3.25;;;0.93;;
75718;SDS011;64340;48.534;-3.036;2023-11-21T10:11:06;2.70;;;0.68;;
75718;SDS011;64340;48.534;-3.036;2023-11-21T10:13:36;3.28;;;0.80;;
75718;SDS011;64340;48.534;-3.036;2023-11-21T10:16:03;3.10;;;0.70;;
75718;SDS011;64340;48.534;-3.036;2023-11-21T10:18:32;2.08;;;0.50;;
75718;SDS011;64340;48.534;-3.036;2023-11-21T10:20:59;3.25;;;0.73;;
75718;SDS011;64340;48.534;-3.036;2023-11-21T10:23:26;4.07;;;1.38;;
75718;SDS011;64340;48.534;-3.036;2023-11-21T10:25:53;2.80;;;0.60;;
75718;SDS011;64340;48.534;-3.036;2023-11-21T10:28:20;2.47;;;0.60;;
75718;SDS011;64340;48.534;-3.036;2023-11-21T10:30:46;1.98;;;0.63;;
75718;SDS011;64340;48.534;-3.036;2023-11-21T10:33:12;3.80;;;0.70;;
75718;SDS011;64340;48.534;-3.036;2023-11-21T10:35:47;2.72;;;0.70;;
75718;SDS011;64340;48.534;-3.036;2023-11-21T10:38:20;3.50;;;0.73;;
75718;SDS011;64340;48.534;-3.036;2023-11-21T10:40:48;2.38;;;0.85;;
75718;SDS011;64340;48.534;-3.036;2023-11-21T10:43:14;4.28;;;1.08;;
75718;SDS011;64340;48.534;-3.036;2023-11-21T10:45:41;2.83;;;0.60;;
75718;SDS011;64340;48.534;-3.036;2023-11-21T10:48:08;3.20;;;0.60;;
75718;SDS011;64340;48.534;-3.036;2023-11-21T10:50:40;1.98;;;0.50;;
75718;SDS011;64340;48.534;-3.036;2023-11-21T10:53:07;2.78;;;0.68;;
75718;SDS011;64340;48.534;-3.036;2023-11-21T10:55:33;3.17;;;0.90;;
75718;SDS011;64340;48.534;-3.036;2023-11-21T10:58:01;2.00;;;0.63;;
75718;SDS011;64340;48.534;-3.036;2023-11-21T11:00:29;5.32;;;1.13;;
75718;SDS011;64340;48.534;-3.036;2023-11-21T11:02:56;2.03;;;0.50;;
75718;SDS011;64340;48.534;-3.036;2023-11-21T11:05:22;2.17;;;0.60;;
75718;SDS011;64340;48.534;-3.036;2023-11-21T11:07:51;1.90;;;0.50;;
75718;SDS011;64340;48.534;-3.036;2023-11-21T11:10:29;1.83;;;0.40;;
75718;SDS011;64340;48.534;-3.036;2023-11-21T11:12:55;2.10;;;0.75;;
75718;SDS011;64340;48.534;-3.036;2023-11-21T11:15:22;3.00;;;0.82;;
75718;SDS011;64340;48.534;-3.036;2023-11-21T11:17:49;2.25;;;0.60;;
75718;SDS011;64340;48.534;-3.036;2023-11-21T11:20:16;2.85;;;0.47;;
75718;SDS011;64340;48.534;-3.036;2023-11-21T11:34:23;2.55;;;0.70;;
75718;SDS011;64340;48.534;-3.036;2023-11-21T11:39:45;1.48;;;0.50;;
75718;SDS011;64340;48.534;-3.036;2023-11-21T11:42:12;3.90;;;0.70;;
75718;SDS011;64340;48.534;-3.036;2023-11-21T11:47:18;2.25;;;0.65;;
75718;SDS011;64340;48.534;-3.036;2023-11-21T11:50:03;2.95;;;0.63;;
75718;SDS011;64340;48.534;-3.036;2023-11-21T11:52:45;1.60;;;0.40;;
75718;SDS011;64340;48.534;-3.036;2023-11-21T11:55:12;2.33;;;0.60;;
75718;SDS011;64340;48.534;-3.036;2023-11-21T11:57:40;4.20;;;1.02;;
75718;SDS011;64340;48.534;-3.036;2023-11-21T12:00:07;3.13;;;0.80;;
75718;SDS011;64340;48.534;-3.036;2023-11-21T12:05:14;2.25;;;0.50;;
75718;SDS011;64340;48.534;-3.036;2023-11-21T12:10:27;2.42;;;0.60;;
75718;SDS011;64340;48.534;-3.036;2023-11-21T12:12:57;2.30;;;0.60;;
75718;SDS011;64340;48.534;-3.036;2023-11-21T12:15:24;3.08;;;0.70;;
75718;SDS011;64340;48.534;-3.036;2023-11-21T12:17:51;2.40;;;0.50;;
75718;SDS011;64340;48.534;-3.036;2023-11-21T12:20:23;3.25;;;0.88;;
75718;SDS011;64340;48.534;-3.036;2023-11-21T12:25:16;4.05;;;0.70;;
75718;SDS011;64340;48.534;-3.036;2023-11-21T12:27:44;1.83;;;0.55;;
75718;SDS011;64340;48.534;-3.036;2023-11-21T12:30:14;2.83;;;0.60;;
75718;SDS011;64340;48.534;-3.036;2023-11-21T12:32:44;3.00;;;0.60;;
75718;SDS011;64340;48.534;-3.036;2023-11-21T12:35:13;3.65;;;0.60;;
75718;SDS011;64340;48.534;-3.036;2023-11-21T12:37:39;3.63;;;0.60;;
75718;SDS011;64340;48.534;-3.036;2023-11-21T12:40:09;2.75;;;0.65;;
75718;SDS011;64340;48.534;-3.036;2023-11-21T12:42:44;3.78;;;0.43;;
75718;SDS011;64340;48.534;-3.036;2023-11-21T12:47:43;3.17;;;0.50;;
75718;SDS011;64340;48.534;-3.036;2023-11-21T12:50:10;2.17;;;0.50;;
75718;SDS011;64340;48.534;-3.036;2023-11-21T12:52:43;2.45;;;0.60;;
75718;SDS011;64340;48.534;-3.036;2023-11-21T12:55:16;2.83;;;0.55;;
75718;SDS011;64340;48.534;-3.036;2023-11-21T12:57:47;2.53;;;0.60;;
75718;SDS011;64340;48.534;-3.036;2023-11-21T13:00:16;3.33;;;0.82;;
75718;SDS011;64340;48.534;-3.036;2023-11-21T13:02:52;2.15;;;0.50;;
75718;SDS011;64340;48.534;-3.036;2023-11-21T13:05:37;2.13;;;0.50;;
75718;SDS011;64340;48.534;-3.036;2023-11-21T13:08:05;1.48;;;0.32;;
75718;SDS011;64340;48.534;-3.036;2023-11-21T13:10:33;2.60;;;0.57;;
75718;SDS011;64340;48.534;-3.036;2023-11-21T13:13:04;4.28;;;0.50;;
75718;SDS011;64340;48.534;-3.036;2023-11-21T13:15:33;0.60;;;0.28;;
75718;SDS011;64340;48.534;-3.036;2023-11-21T13:18:01;1.80;;;0.70;;
75718;SDS011;64340;48.534;-3.036;2023-11-21T13:20:28;1.85;;;0.57;;
75718;SDS011;64340;48.534;-3.036;2023-11-21T13:22:58;1.23;;;0.40;;
75718;SDS011;64340;48.534;-3.036;2023-11-21T13:25:26;1.63;;;0.50;;
75718;SDS011;64340;48.534;-3.036;2023-11-21T13:27:55;2.50;;;0.50;;
75718;SDS011;64340;48.534;-3.036;2023-11-21T13:32:52;2.92;;;0.40;;
75718;SDS011;64340;48.534;-3.036;2023-11-21T13:35:22;1.52;;;0.32;;
75718;SDS011;64340;48.534;-3.036;2023-11-21T13:37:56;2.03;;;0.45;;
75718;SDS011;64340;48.534;-3.036;2023-11-21T13:40:25;2.83;;;0.60;;
75718;SDS011;64340;48.534;-3.036;2023-11-21T13:42:54;1.58;;;0.40;;
75718;SDS011;64340;48.534;-3.036;2023-11-21T13:45:22;1.50;;;0.40;;
75718;SDS011;64340;48.534;-3.036;2023-11-21T13:47:50;1.65;;;0.30;;
75718;SDS011;64340;48.534;-3.036;2023-11-21T13:50:17;2.67;;;0.50;;
75718;SDS011;64340;48.534;-3.036;2023-11-21T13:52:48;1.20;;;0.30;;
75718;SDS011;64340;48.534;-3.036;2023-11-21T13:55:18;3.13;;;0.40;;
75718;SDS011;64340;48.534;-3.036;2023-11-21T13:57:44;2.67;;;0.60;;
75718;SDS011;64340;48.534;-3.036;2023-11-21T14:00:14;1.02;;;0.30;;
75718;SDS011;64340;48.534;-3.036;2023-11-21T14:02:59;1.13;;;0.20;;
75718;SDS011;64340;48.534;-3.036;2023-11-21T14:05:28;3.65;;;0.47;;
75718;SDS011;64340;48.534;-3.036;2023-11-21T14:10:21;2.90;;;0.55;;
75718;SDS011;64340;48.534;-3.036;2023-11-21T14:12:49;1.30;;;0.30;;
75718;SDS011;64340;48.534;-3.036;2023-11-21T14:15:15;2.40;;;0.32;;
75718;SDS011;64340;48.534;-3.036;2023-11-21T14:17:44;2.33;;;0.40;;
75718;SDS011;64340;48.534;-3.036;2023-11-21T14:20:10;1.73;;;0.32;;
75718;SDS011;64340;48.534;-3.036;2023-11-21T14:22:41;0.88;;;0.32;;
75718;SDS011;64340;48.534;-3.036;2023-11-21T14:25:07;2.70;;;0.52;;
75718;SDS011;64340;48.534;-3.036;2023-11-21T14:27:34;1.13;;;0.30;;
75718;SDS011;64340;48.534;-3.036;2023-11-21T14:30:00;2.55;;;0.30;;
75718;SDS011;64340;48.534;-3.036;2023-11-21T14:32:25;2.22;;;0.52;;
75718;SDS011;64340;48.534;-3.036;2023-11-21T14:34:52;1.48;;;0.20;;
75718;SDS011;64340;48.534;-3.036;2023-11-21T14:37:17;2.40;;;0.30;;
75718;SDS011;64340;48.534;-3.036;2023-11-21T14:39:44;1.90;;;0.40;;
75718;SDS011;64340;48.534;-3.036;2023-11-21T14:42:13;1.83;;;0.43;;
75718;SDS011;64340;48.534;-3.036;2023-11-21T14:44:49;1.65;;;0.43;;
75718;SDS011;64340;48.534;-3.036;2023-11-21T14:47:15;1.27;;;0.40;;
75718;SDS011;64340;48.534;-3.036;2023-11-21T14:49:41;1.77;;;0.35;;
75718;SDS011;64340;48.534;-3.036;2023-11-21T14:52:30;10.23;;;5.93;;
75718;SDS011;64340;48.534;-3.036;2023-11-21T14:55:02;9.65;;;3.00;;
75718;SDS011;64340;48.534;-3.036;2023-11-21T14:57:47;10.07;;;2.33;;
75718;SDS011;64340;48.534;-3.036;2023-11-21T15:00:19;6.35;;;2.10;;
75718;SDS011;64340;48.534;-3.036;2023-11-21T15:03:01;6.32;;;1.83;;
75718;SDS011;64340;48.534;-3.036;2023-11-21T15:05:27;4.10;;;1.50;;
75718;SDS011;64340;48.534;-3.036;2023-11-21T15:07:54;6.03;;;1.88;;
75718;SDS011;64340;48.534;-3.036;2023-11-21T15:10:22;4.07;;;1.10;;